Time;durP1;ratioP1;P1;durP2;ratioP2;P2;SDS_P1;SDS_P2;PMS_P1;PMS_P2;Temp;Humidity;BMP_temperature;BMP_pressure;BME280_temperature;BME280_humidity;BME280_pressure;Samples;Min_cycle;Max_cycle;Signal;HPM_P1;HPM_P2
2023/12/25 00:00:30;;;;;;;50.50;34.75;;;;;;;;;;4967794;28;20164;-64
2023/12/25 00:02:55;;;;;;;59.47;41.72;;;;;;;;;;4966337;28;20105;-65
2023/12/25 00:05:20;;;;;;;39.83;26.85;;;;;;;;;;4970682;28;20050;-65
2023/12/25 00:07:46;;;;;;;64.32;46.83;;;;;;;;;;4967516;28;20034;-65
2023/12/25 00:10:11;;;;;;;61.42;41.63;;;;;;;;;;4967671;28;20058;-63
2023/12/25 00:12:36;;;;;;;42.28;28.55;;;;;;;;;;4970243;28;20091;-65
2023/12/25 00:15:02;;;;;;;40.13;25.52;;;;;;;;;;4954981;28;20504;-65
2023/12/25 00:17:27;;;;;;;35.25;24.05;;;;;;;;;;4970091;28;20407;-68
2023/12/25 00:19:53;;;;;;;36.03;25.85;;;;;;;;;;4965193;28;20384;-66
2023/12/25 00:22:18;;;;;;;25.38;16.85;;;;;;;;;;4960311;28;20446;-65
2023/12/25 00:24:44;;;;;;;19.23;12.35;;;;;;;;;;4970583;28;21122;-68
2023/12/25 00:27:10;;;;;;;17.83;11.18;;;;;;;;;;4957187;28;20035;-64
2023/12/25 00:29:35;;;;;;;22.13;13.88;;;;;;;;;;4971487;28;20053;-65
2023/12/25 00:32:00;;;;;;;23.13;14.15;;;;;;;;;;4970445;28;20027;-62
2023/12/25 00:34:26;;;;;;;54.22;43.58;;;;;;;;;;4972195;28;20027;-63
2023/12/25 00:36:51;;;;;;;40.58;29.75;;;;;;;;;;4971508;28;20034;-64
2023/12/25 00:39:16;;;;;;;44.90;33.38;;;;;;;;;;4971792;28;20054;-68
2023/12/25 00:41:42;;;;;;;26.38;16.05;;;;;;;;;;4961833;28;20069;-65
2023/12/25 00:44:07;;;;;;;28.50;16.55;;;;;;;;;;4963499;28;20531;-66
2023/12/25 00:46:33;;;;;;;53.80;42.08;;;;;;;;;;4968736;28;20027;-65
2023/12/25 00:48:58;;;;;;;55.10;36.90;;;;;;;;;;4957762;28;20027;-63
2023/12/25 00:51:25;;;;;;;38.67;26.20;;;;;;;;;;4961119;28;20034;-65
2023/12/25 00:53:50;;;;;;;28.17;19.67;;;;;;;;;;4971253;28;20077;-65
2023/12/25 00:56:15;;;;;;;24.40;17.90;;;;;;;;;;4968273;28;20345;-63
2023/12/25 00:58:41;;;;;;;21.92;12.00;;;;;;;;;;4967453;28;20062;-65
2023/12/25 01:01:07;;;;;;;18.98;12.23;;;;;;;;;;4968819;28;20324;-65
2023/12/25 01:03:32;;;;;;;21.27;13.75;;;;;;;;;;4969471;28;20041;-68
2023/12/25 01:05:58;;;;;;;32.42;21.30;;;;;;;;;;4970252;28;20581;-66
2023/12/25 01:08:23;;;;;;;32.13;21.83;;;;;;;;;;4964044;28;20066;-66
2023/12/25 01:10:48;;;;;;;31.63;22.77;;;;;;;;;;4959990;28;20034;-63
2023/12/25 01:13:13;;;;;;;70.85;48.22;;;;;;;;;;4970520;28;20031;-63
2023/12/25 01:15:39;;;;;;;398.55;276.30;;;;;;;;;;4970654;28;20066;-63
2023/12/25 01:18:04;;;;;;;257.02;171.40;;;;;;;;;;4953277;28;20044;-62
2023/12/25 01:20:30;;;;;;;178.88;121.63;;;;;;;;;;4966235;28;20034;-63
2023/12/25 01:22:55;;;;;;;70.88;47.47;;;;;;;;;;4958651;28;20092;-67
2023/12/25 01:25:20;;;;;;;65.22;47.17;;;;;;;;;;4958469;28;20422;-67
2023/12/25 01:27:46;;;;;;;49.67;33.50;;;;;;;;;;4962918;28;20039;-64
2023/12/25 01:30:12;;;;;;;80.50;58.08;;;;;;;;;;4961202;28;20038;-64
2023/12/25 01:32:37;;;;;;;85.85;62.53;;;;;;;;;;4964163;28;20324;-64
2023/12/25 01:35:04;;;;;;;67.88;47.92;;;;;;;;;;4960807;28;20101;-65
2023/12/25 01:37:29;;;;;;;75.22;54.95;;;;;;;;;;4970631;28;20038;-64
2023/12/25 01:39:54;;;;;;;59.28;42.78;;;;;;;;;;4967710;28;20096;-66
2023/12/25 01:42:20;;;;;;;44.55;31.08;;;;;;;;;;4959986;28;20042;-63
2023/12/25 01:44:46;;;;;;;25.88;17.17;;;;;;;;;;4958776;28;20034;-69
2023/12/25 01:47:12;;;;;;;78.28;58.75;;;;;;;;;;4971860;28;20062;-68
2023/12/25 01:49:38;;;;;;;53.08;34.58;;;;;;;;;;4972147;28;20023;-65
2023/12/25 01:52:03;;;;;;;43.53;30.00;;;;;;;;;;4971637;28;20050;-63
2023/12/25 01:54:28;;;;;;;42.67;30.35;;;;;;;;;;4968514;28;20026;-64
2023/12/25 01:56:54;;;;;;;37.63;26.10;;;;;;;;;;4968931;28;20437;-64
2023/12/25 01:59:19;;;;;;;28.15;17.48;;;;;;;;;;4970179;28;20442;-69
2023/12/25 02:01:44;;;;;;;25.15;16.20;;;;;;;;;;4968271;28;20035;-67
2023/12/25 02:04:10;;;;;;;19.60;12.82;;;;;;;;;;4967502;28;20023;-66
2023/12/25 02:06:36;;;;;;;25.08;16.38;;;;;;;;;;4955027;28;20137;-68
2023/12/25 02:09:02;;;;;;;24.65;14.55;;;;;;;;;;4967643;28;20047;-65
2023/12/25 02:11:28;;;;;;;25.35;14.63;;;;;;;;;;4967665;28;20027;-65
2023/12/25 02:13:56;;;;;;;26.83;15.98;;;;;;;;;;4968355;28;20050;-64
2023/12/25 02:16:22;;;;;;;31.55;19.13;;;;;;;;;;4968623;28;20072;-65
2023/12/25 02:18:48;;;;;;;34.28;19.92;;;;;;;;;;4957156;28;20430;-67
2023/12/25 02:21:13;;;;;;;31.92;19.48;;;;;;;;;;4956001;28;20023;-64
2023/12/25 02:23:40;;;;;;;50.22;33.25;;;;;;;;;;4967368;28;20026;-64
2023/12/25 02:26:06;;;;;;;54.35;37.38;;;;;;;;;;4968040;28;20113;-66
2023/12/25 02:28:32;;;;;;;46.80;26.98;;;;;;;;;;4968655;28;20115;-64
2023/12/25 02:30:58;;;;;;;31.35;22.10;;;;;;;;;;4970078;28;20427;-65
2023/12/25 02:33:23;;;;;;;29.52;20.45;;;;;;;;;;4957005;28;20477;-64
2023/12/25 02:35:49;;;;;;;32.22;18.35;;;;;;;;;;4968632;28;20039;-66
2023/12/25 02:38:15;;;;;;;20.75;11.95;;;;;;;;;;4956569;28;20045;-66
2023/12/25 02:40:40;;;;;;;21.00;13.98;;;;;;;;;;4960194;28;20084;-67
2023/12/25 02:43:07;;;;;;;20.63;10.10;;;;;;;;;;4961080;28;20118;-65
2023/12/25 02:45:32;;;;;;;15.55;8.93;;;;;;;;;;4968813;28;20068;-63
2023/12/25 02:47:57;;;;;;;14.18;7.05;;;;;;;;;;4957766;28;20058;-67
2023/12/25 02:50:23;;;;;;;24.15;14.75;;;;;;;;;;4964715;28;20034;-63
2023/12/25 02:52:48;;;;;;;19.50;11.10;;;;;;;;;;4949376;28;20173;-68
2023/12/25 02:55:13;;;;;;;15.48;7.90;;;;;;;;;;4969265;28;20109;-65
2023/12/25 02:57:39;;;;;;;14.05;8.70;;;;;;;;;;4955088;28;20459;-64
2023/12/25 03:00:05;;;;;;;14.02;6.05;;;;;;;;;;4965330;28;20129;-69
2023/12/25 03:02:30;;;;;;;11.38;6.30;;;;;;;;;;4965074;28;20026;-65
2023/12/25 03:04:56;;;;;;;13.63;7.65;;;;;;;;;;4968925;28;20346;-66
2023/12/25 03:07:21;;;;;;;16.08;6.60;;;;;;;;;;4967756;28;20022;-65
2023/12/25 03:09:46;;;;;;;12.27;6.80;;;;;;;;;;4967329;28;20359;-64
2023/12/25 03:12:12;;;;;;;16.48;9.88;;;;;;;;;;4955939;28;20038;-65
2023/12/25 03:14:37;;;;;;;17.50;10.13;;;;;;;;;;4968750;28;20295;-64
2023/12/25 03:17:03;;;;;;;18.10;9.77;;;;;;;;;;4967557;28;20039;-67
2023/12/25 03:19:29;;;;;;;16.25;10.02;;;;;;;;;;4966925;28;20183;-65
2023/12/25 03:21:54;;;;;;;19.75;10.02;;;;;;;;;;4969081;28;20346;-69
2023/12/25 03:24:19;;;;;;;18.23;10.15;;;;;;;;;;4958069;28;20030;-66
2023/12/25 03:26:45;;;;;;;19.27;10.07;;;;;;;;;;4951727;28;20035;-66
2023/12/25 03:29:10;;;;;;;18.80;8.85;;;;;;;;;;4953478;28;20031;-64
2023/12/25 03:31:35;;;;;;;19.63;8.88;;;;;;;;;;4954538;28;20033;-67
2023/12/25 03:34:01;;;;;;;19.85;8.90;;;;;;;;;;4953696;28;20030;-65
2023/12/25 03:36:26;;;;;;;16.00;8.32;;;;;;;;;;4950557;28;20034;-67
2023/12/25 03:38:51;;;;;;;13.02;7.82;;;;;;;;;;4949713;28;20026;-64
2023/12/25 03:41:17;;;;;;;15.57;9.07;;;;;;;;;;4950043;28;20122;-64
2023/12/25 03:43:42;;;;;;;17.90;11.35;;;;;;;;;;4950199;28;21117;-65
2023/12/25 03:46:08;;;;;;;21.00;14.15;;;;;;;;;;4949400;28;20042;-64
2023/12/25 03:48:33;;;;;;;20.23;12.55;;;;;;;;;;4953796;28;20482;-69
2023/12/25 03:50:59;;;;;;;16.90;10.73;;;;;;;;;;4953437;28;20018;-65
2023/12/25 03:53:24;;;;;;;16.77;11.05;;;;;;;;;;4952318;28;20109;-66
2023/12/25 03:55:50;;;;;;;17.40;11.30;;;;;;;;;;4960073;28;20034;-67
2023/12/25 03:58:15;;;;;;;14.70;8.68;;;;;;;;;;4958814;28;20038;-66
2023/12/25 04:00:40;;;;;;;16.70;9.25;;;;;;;;;;4957671;28;20033;-63
2023/12/25 04:03:06;;;;;;;14.98;8.45;;;;;;;;;;4936438;28;20446;-64
2023/12/25 04:05:31;;;;;;;11.20;6.70;;;;;;;;;;4938760;28;20056;-66
2023/12/25 04:07:56;;;;;;;10.88;5.75;;;;;;;;;;4953961;28;20042;-65
2023/12/25 04:10:22;;;;;;;13.63;5.65;;;;;;;;;;4953576;28;20047;-65
2023/12/25 04:12:47;;;;;;;12.18;6.68;;;;;;;;;;4954225;28;20030;-66
2023/12/25 04:15:13;;;;;;;14.35;7.65;;;;;;;;;;4955405;28;20038;-64
2023/12/25 04:17:38;;;;;;;14.27;6.55;;;;;;;;;;4956627;28;20092;-66
2023/12/25 04:20:03;;;;;;;11.20;5.55;;;;;;;;;;4953991;28;20137;-64
2023/12/25 04:22:29;;;;;;;13.18;5.22;;;;;;;;;;4940227;28;20057;-68
2023/12/25 04:24:54;;;;;;;10.90;5.28;;;;;;;;;;4953961;28;20145;-63
2023/12/25 04:27:20;;;;;;;54.60;30.13;;;;;;;;;;4955820;28;20034;-66
2023/12/25 04:29:45;;;;;;;30.55;18.13;;;;;;;;;;4960196;28;20543;-69
2023/12/25 04:32:10;;;;;;;17.75;7.78;;;;;;;;;;4969353;28;20026;-66
2023/12/25 04:34:36;;;;;;;13.20;6.03;;;;;;;;;;4969781;28;20043;-68
2023/12/25 04:37:01;;;;;;;16.73;7.47;;;;;;;;;;4970598;28;20027;-66
2023/12/25 04:39:27;;;;;;;14.52;7.40;;;;;;;;;;4968814;28;20046;-64
2023/12/25 04:41:52;;;;;;;15.27;7.82;;;;;;;;;;4957202;28;20154;-63
2023/12/25 04:44:17;;;;;;;11.80;7.63;;;;;;;;;;4970127;28;20070;-66
2023/12/25 04:46:43;;;;;;;17.42;8.50;;;;;;;;;;4958662;28;20100;-65
2023/12/25 04:49:08;;;;;;;20.88;10.07;;;;;;;;;;4944826;28;20027;-64
2023/12/25 04:51:33;;;;;;;17.75;8.43;;;;;;;;;;4956884;28;20030;-65
2023/12/25 04:53:59;;;;;;;12.35;6.43;;;;;;;;;;4970190;28;20045;-65
2023/12/25 04:56:24;;;;;;;13.13;5.60;;;;;;;;;;4969823;28;20049;-67
2023/12/25 04:58:50;;;;;;;15.45;8.35;;;;;;;;;;4958040;28;20045;-65
2023/12/25 05:01:15;;;;;;;20.08;11.18;;;;;;;;;;4957184;28;20027;-72
2023/12/25 05:03:41;;;;;;;24.05;15.77;;;;;;;;;;4956075;28;20053;-66
2023/12/25 05:06:06;;;;;;;18.80;11.55;;;;;;;;;;4954139;28;20089;-65
2023/12/25 05:08:31;;;;;;;14.02;7.53;;;;;;;;;;4938917;28;20046;-65
2023/12/25 05:10:57;;;;;;;15.95;9.40;;;;;;;;;;4960804;28;20086;-64
2023/12/25 05:13:22;;;;;;;12.05;8.38;;;;;;;;;;4967541;28;20080;-65
2023/12/25 05:15:47;;;;;;;14.32;7.45;;;;;;;;;;4960717;28;20780;-64
2023/12/25 05:18:13;;;;;;;14.35;8.65;;;;;;;;;;4956899;28;20030;-68
2023/12/25 05:20:38;;;;;;;17.00;8.68;;;;;;;;;;4966554;28;20031;-69
2023/12/25 05:23:03;;;;;;;36.72;23.15;;;;;;;;;;4968092;28;20026;-66
2023/12/25 05:25:29;;;;;;;32.65;20.58;;;;;;;;;;4971146;28;20026;-64
2023/12/25 05:27:54;;;;;;;13.18;6.97;;;;;;;;;;4965171;28;20037;-68
2023/12/25 05:30:19;;;;;;;20.02;11.32;;;;;;;;;;4963905;28;20030;-65
2023/12/25 05:32:45;;;;;;;18.40;12.13;;;;;;;;;;4972508;28;20060;-64
2023/12/25 05:35:10;;;;;;;19.25;12.02;;;;;;;;;;4959307;28;20114;-65
2023/12/25 05:37:35;;;;;;;18.45;13.85;;;;;;;;;;4970827;28;20061;-66
2023/12/25 05:40:02;;;;;;;14.88;9.50;;;;;;;;;;4955770;28;20026;-64
2023/12/25 05:42:27;;;;;;;14.93;8.93;;;;;;;;;;4968272;28;20027;-68
2023/12/25 05:44:52;;;;;;;16.38;8.95;;;;;;;;;;4971087;28;20077;-65
2023/12/25 05:47:18;;;;;;;10.35;5.88;;;;;;;;;;4969819;28;20049;-71
2023/12/25 05:49:43;;;;;;;15.00;6.55;;;;;;;;;;4967176;28;20148;-66
2023/12/25 05:52:09;;;;;;;22.27;10.98;;;;;;;;;;4969403;28;20027;-64
2023/12/25 05:54:34;;;;;;;23.20;11.18;;;;;;;;;;4966380;28;20030;-66
2023/12/25 05:56:59;;;;;;;23.38;11.63;;;;;;;;;;4962421;28;20030;-64
2023/12/25 05:59:25;;;;;;;31.60;14.57;;;;;;;;;;4972612;28;20049;-66
2023/12/25 06:01:51;;;;;;;23.42;11.60;;;;;;;;;;4983271;28;20048;-64
2023/12/25 06:04:17;;;;;;;19.65;10.15;;;;;;;;;;4980938;28;20076;-65
2023/12/25 06:06:42;;;;;;;15.52;8.57;;;;;;;;;;4978733;28;20810;-70
2023/12/25 06:09:10;;;;;;;38.50;30.58;;;;;;;;;;4981439;28;20453;-64
2023/12/25 06:11:35;;;;;;;31.10;19.33;;;;;;;;;;4980203;28;20076;-68
2023/12/25 06:14:01;;;;;;;25.80;18.45;;;;;;;;;;4977248;28;20027;-66
2023/12/25 06:16:26;;;;;;;58.92;51.22;;;;;;;;;;4977214;28;20084;-69
2023/12/25 06:18:51;;;;;;;25.08;15.55;;;;;;;;;;4976109;28;20026;-68
2023/12/25 06:21:17;;;;;;;26.35;17.65;;;;;;;;;;4970946;28;20030;-68
2023/12/25 06:23:42;;;;;;;50.25;37.25;;;;;;;;;;4971374;28;20060;-68
2023/12/25 06:26:08;;;;;;;41.78;30.85;;;;;;;;;;4969605;28;20122;-65
2023/12/25 06:28:33;;;;;;;43.25;30.05;;;;;;;;;;4967730;28;20038;-67
2023/12/25 06:30:58;;;;;;;34.20;21.52;;;;;;;;;;4957950;28;20034;-67
2023/12/25 06:33:24;;;;;;;21.70;14.07;;;;;;;;;;4956714;28;20037;-68
2023/12/25 06:35:49;;;;;;;19.73;11.43;;;;;;;;;;4965902;28;20033;-68
2023/12/25 06:38:14;;;;;;;19.55;10.93;;;;;;;;;;4962166;28;20030;-67
2023/12/25 06:40:40;;;;;;;41.85;29.20;;;;;;;;;;4962886;28;20052;-68
2023/12/25 06:43:06;;;;;;;50.55;43.60;;;;;;;;;;4967527;28;20456;-66
2023/12/25 06:45:31;;;;;;;43.22;34.83;;;;;;;;;;4968655;28;20093;-65
2023/12/25 06:47:57;;;;;;;60.15;49.38;;;;;;;;;;4969844;28;20030;-67
2023/12/25 06:50:22;;;;;;;43.08;38.30;;;;;;;;;;4966900;28;21376;-69
2023/12/25 06:52:48;;;;;;;62.42;49.85;;;;;;;;;;4968458;28;20287;-66
2023/12/25 06:55:14;;;;;;;27.77;20.83;;;;;;;;;;4969370;28;20030;-66
2023/12/25 06:57:39;;;;;;;26.45;17.02;;;;;;;;;;4969495;28;20026;-69
2023/12/25 07:00:05;;;;;;;22.42;16.92;;;;;;;;;;4968207;28;20426;-68
2023/12/25 07:02:30;;;;;;;49.20;35.97;;;;;;;;;;4967544;28;20331;-68
2023/12/25 07:04:56;;;;;;;148.20;101.25;;;;;;;;;;4968171;28;20030;-69
2023/12/25 07:07:21;;;;;;;53.63;43.15;;;;;;;;;;4967405;28;20301;-69
2023/12/25 07:09:46;;;;;;;131.38;110.28;;;;;;;;;;4969273;28;20078;-69
2023/12/25 07:12:12;;;;;;;171.93;142.85;;;;;;;;;;4969180;28;20031;-66
2023/12/25 07:14:38;;;;;;;128.57;109.18;;;;;;;;;;4968216;28;20038;-65
2023/12/25 07:17:06;;;;;;;64.97;53.03;;;;;;;;;;4968013;28;20395;-67
2023/12/25 07:19:31;;;;;;;52.72;42.25;;;;;;;;;;4968407;28;20046;-67
2023/12/25 07:21:57;;;;;;;40.60;31.25;;;;;;;;;;4969368;28;20033;-67
2023/12/25 07:24:22;;;;;;;44.17;36.22;;;;;;;;;;4968555;28;20042;-70
2023/12/25 07:26:48;;;;;;;52.58;44.90;;;;;;;;;;4970883;28;20303;-67
2023/12/25 07:29:13;;;;;;;102.63;80.72;;;;;;;;;;4966001;28;20037;-68
2023/12/25 07:31:38;;;;;;;53.63;41.25;;;;;;;;;;4971237;28;20057;-69
2023/12/25 07:34:04;;;;;;;12.73;8.38;;;;;;;;;;4969405;28;20058;-68
2023/12/25 07:36:29;;;;;;;9.35;5.97;;;;;;;;;;4967759;28;21073;-71
2023/12/25 07:38:54;;;;;;;8.95;5.70;;;;;;;;;;4970046;28;20463;-69
2023/12/25 07:41:21;;;;;;;17.67;13.30;;;;;;;;;;4968389;28;20419;-68
2023/12/25 07:43:47;;;;;;;26.90;20.45;;;;;;;;;;4966856;28;20463;-66
2023/12/25 07:46:12;;;;;;;173.85;121.80;;;;;;;;;;4967819;28;20023;-67
2023/12/25 07:48:37;;;;;;;401.10;326.27;;;;;;;;;;4970019;28;20030;-68
2023/12/25 07:51:03;;;;;;;300.30;226.52;;;;;;;;;;4969763;28;20434;-69
2023/12/25 07:53:28;;;;;;;171.43;126.15;;;;;;;;;;4966497;28;20015;-72
2023/12/25 07:55:53;;;;;;;79.82;58.88;;;;;;;;;;4970837;28;20446;-70
2023/12/25 07:58:19;;;;;;;45.38;38.65;;;;;;;;;;4968865;28;20518;-69
2023/12/25 08:00:44;;;;;;;45.70;39.13;;;;;;;;;;4969113;28;21170;-70
2023/12/25 08:03:10;;;;;;;41.63;36.30;;;;;;;;;;4967432;28;20023;-66
2023/12/25 08:05:35;;;;;;;51.08;42.80;;;;;;;;;;4967802;28;20137;-68
2023/12/25 08:08:01;;;;;;;82.70;69.28;;;;;;;;;;4968744;28;20042;-68
2023/12/25 08:10:26;;;;;;;38.72;31.08;;;;;;;;;;4970377;28;20146;-70
2023/12/25 08:12:52;;;;;;;23.92;18.52;;;;;;;;;;4970104;28;20023;-67
2023/12/25 08:15:18;;;;;;;19.92;16.02;;;;;;;;;;4968303;28;20038;-69
2023/12/25 08:17:43;;;;;;;28.67;22.48;;;;;;;;;;4968564;28;20041;-68
2023/12/25 08:20:09;;;;;;;20.00;16.38;;;;;;;;;;4969210;28;20038;-69
2023/12/25 08:22:35;;;;;;;32.05;26.27;;;;;;;;;;4972259;28;20038;-69
2023/12/25 08:25:00;;;;;;;55.08;49.50;;;;;;;;;;4967479;28;20323;-69
2023/12/25 08:27:25;;;;;;;17.17;12.90;;;;;;;;;;4967870;28;20350;-69
2023/12/25 08:29:51;;;;;;;32.70;28.35;;;;;;;;;;4968841;28;20030;-69
2023/12/25 08:32:16;;;;;;;15.10;9.18;;;;;;;;;;4968182;28;20022;-69
2023/12/25 08:34:42;;;;;;;17.30;9.45;;;;;;;;;;4969951;28;20395;-70
2023/12/25 08:37:07;;;;;;;12.48;8.27;;;;;;;;;;4969397;28;20434;-71
2023/12/25 08:39:33;;;;;;;14.68;7.63;;;;;;;;;;4966987;28;20046;-70
2023/12/25 08:42:00;;;;;;;12.38;8.30;;;;;;;;;;4971193;28;20065;-70
2023/12/25 08:44:26;;;;;;;11.63;5.53;;;;;;;;;;4972354;28;20331;-70
2023/12/25 08:46:52;;;;;;;14.10;7.40;;;;;;;;;;4970706;28;20053;-70
2023/12/25 08:49:17;;;;;;;16.17;8.35;;;;;;;;;;4973898;28;20022;-72
2023/12/25 08:51:42;;;;;;;10.05;5.78;;;;;;;;;;4971895;28;20062;-70
2023/12/25 08:54:08;;;;;;;17.25;7.95;;;;;;;;;;4973401;28;20032;-70
2023/12/25 08:56:33;;;;;;;19.52;8.60;;;;;;;;;;4973001;28;20049;-71
2023/12/25 08:59:00;;;;;;;13.18;6.60;;;;;;;;;;4975170;28;20031;-70
2023/12/25 09:01:25;;;;;;;13.18;6.15;;;;;;;;;;4969951;28;20053;-70
2023/12/25 09:03:50;;;;;;;12.40;5.60;;;;;;;;;;4973170;28;20443;-70
2023/12/25 09:06:16;;;;;;;11.30;5.80;;;;;;;;;;4972715;28;20077;-71
2023/12/25 09:08:41;;;;;;;15.50;9.23;;;;;;;;;;4971326;28;20066;-71
2023/12/25 09:11:08;;;;;;;11.27;6.20;;;;;;;;;;4972267;28;20030;-68
2023/12/25 09:13:33;;;;;;;18.40;9.32;;;;;;;;;;4970551;28;20044;-70
2023/12/25 09:15:58;;;;;;;18.60;12.75;;;;;;;;;;4971076;28;20030;-71
2023/12/25 09:18:24;;;;;;;8.90;6.10;;;;;;;;;;4969918;28;20351;-70
2023/12/25 09:20:49;;;;;;;10.98;5.38;;;;;;;;;;4968930;28;20056;-70
2023/12/25 09:23:14;;;;;;;14.68;10.00;;;;;;;;;;4971926;28;20034;-70
2023/12/25 09:25:40;;;;;;;10.13;5.50;;;;;;;;;;4969808;28;20014;-70
2023/12/25 09:28:05;;;;;;;13.93;8.13;;;;;;;;;;4961630;28;20043;-69
2023/12/25 09:30:31;;;;;;;16.33;6.85;;;;;;;;;;4971093;28;20030;-71
2023/12/25 09:32:56;;;;;;;9.05;5.22;;;;;;;;;;4968748;28;20039;-69
2023/12/25 09:35:21;;;;;;;15.75;7.18;;;;;;;;;;4974167;28;20022;-69
2023/12/25 09:37:47;;;;;;;9.38;5.00;;;;;;;;;;4973567;28;20028;-72
2023/12/25 09:40:12;;;;;;;11.45;4.85;;;;;;;;;;4970569;28;20038;-71
2023/12/25 09:42:37;;;;;;;10.07;6.25;;;;;;;;;;4971595;28;20026;-71
2023/12/25 09:45:04;;;;;;;16.50;6.32;;;;;;;;;;4970955;28;20410;-71
2023/12/25 09:47:30;;;;;;;9.75;4.57;;;;;;;;;;4971504;28;20030;-69
2023/12/25 09:49:56;;;;;;;9.02;5.13;;;;;;;;;;4969294;28;20118;-70
2023/12/25 09:52:22;;;;;;;10.30;7.18;;;;;;;;;;4970734;28;20491;-70
2023/12/25 09:54:48;;;;;;;19.90;13.00;;;;;;;;;;4971490;28;20042;-71
2023/12/25 09:57:14;;;;;;;17.60;12.00;;;;;;;;;;4972283;28;20035;-71
2023/12/25 09:59:41;;;;;;;13.45;6.60;;;;;;;;;;4970036;28;20058;-72
2023/12/25 10:02:07;;;;;;;20.65;8.70;;;;;;;;;;4971952;28;20026;-70
2023/12/25 10:04:34;;;;;;;12.73;6.50;;;;;;;;;;4971787;28;20041;-70
2023/12/25 10:06:59;;;;;;;12.18;6.55;;;;;;;;;;4971324;28;20030;-70
2023/12/25 10:09:24;;;;;;;11.52;4.85;;;;;;;;;;4971205;28;20401;-69
2023/12/25 10:11:50;;;;;;;14.32;7.18;;;;;;;;;;4969850;28;20093;-69
2023/12/25 10:14:15;;;;;;;13.43;7.50;;;;;;;;;;4971526;28;20089;-72
2023/12/25 10:16:41;;;;;;;10.40;5.93;;;;;;;;;;4971031;28;20109;-71
2023/12/25 10:19:06;;;;;;;16.20;8.65;;;;;;;;;;4970694;28;20038;-71
2023/12/25 10:21:41;;;;;;;20.55;11.77;;;;;;;;;;4970258;28;20072;-71
2023/12/25 10:24:16;;;;;;;20.98;14.88;;;;;;;;;;4970015;28;20037;-70
2023/12/25 10:26:44;;;;;;;21.50;17.92;;;;;;;;;;4966598;28;20179;-71
2023/12/25 10:29:10;;;;;;;67.05;50.13;;;;;;;;;;4970584;28;20038;-71
2023/12/25 10:31:39;;;;;;;17.63;12.45;;;;;;;;;;4969713;28;20033;-72
2023/12/25 10:34:04;;;;;;;27.45;20.50;;;;;;;;;;4969132;28;20030;-71
2023/12/25 10:36:30;;;;;;;70.32;63.00;;;;;;;;;;4968851;28;20056;-71
2023/12/25 10:38:56;;;;;;;36.85;30.73;;;;;;;;;;4970696;28;20121;-70
2023/12/25 10:41:25;;;;;;;18.42;14.50;;;;;;;;;;4969911;28;20034;-71
2023/12/25 10:43:52;;;;;;;;;;;;;;;;;;4969254;28;20426;-70
2023/12/25 10:46:19;;;;;;;27.30;24.38;;;;;;;;;;4972357;28;19929;-69
2023/12/25 10:48:49;;;;;;;15.07;9.60;;;;;;;;;;4970979;28;20117;-71
2023/12/25 10:51:16;;;;;;;16.77;8.45;;;;;;;;;;4970235;28;20041;-70
2023/12/25 10:53:41;;;;;;;25.30;15.13;;;;;;;;;;4968306;28;20226;-71
2023/12/25 10:56:07;;;;;;;12.93;7.43;;;;;;;;;;4968946;28;20460;-71
2023/12/25 10:58:33;;;;;;;22.80;14.50;;;;;;;;;;4968765;28;20045;-71
2023/12/25 11:00:59;;;;;;;19.35;15.13;;;;;;;;;;4970169;28;20073;-69
2023/12/25 11:03:25;;;;;;;15.57;8.38;;;;;;;;;;4969132;28;20041;-71
2023/12/25 11:05:51;;;;;;;19.55;11.23;;;;;;;;;;4968021;28;20030;-72
2023/12/25 11:08:17;;;;;;;19.00;10.05;;;;;;;;;;4970868;28;20036;-70
2023/12/25 11:10:43;;;;;;;17.65;8.73;;;;;;;;;;4969449;28;20030;-72
2023/12/25 11:13:09;;;;;;;21.33;12.73;;;;;;;;;;4969725;28;20118;-70
2023/12/25 11:15:34;;;;;;;25.88;23.17;;;;;;;;;;4972055;28;20042;-72
2023/12/25 11:18:01;;;;;;;31.65;23.80;;;;;;;;;;4968527;28;20136;-71
2023/12/25 11:20:26;;;;;;;28.02;22.48;;;;;;;;;;4967093;28;21143;-70
2023/12/25 11:22:56;;;;;;;22.35;14.73;;;;;;;;;;4970049;28;20698;-69
2023/12/25 11:25:21;;;;;;;;;;;;;;;;;;4968661;28;20335;-72
2023/12/25 11:27:51;;;;;;;7.50;3.83;;;;;;;;;;4968861;28;19921;-70
2023/12/25 11:30:17;;;;;;;10.60;6.82;;;;;;;;;;4967960;28;20162;-70
2023/12/25 11:32:45;;;;;;;7.88;4.50;;;;;;;;;;4968491;28;20034;-70
2023/12/25 11:35:11;;;;;;;10.23;6.80;;;;;;;;;;4969582;28;20030;-70
2023/12/25 11:37:38;;;;;;;10.40;7.22;;;;;;;;;;4968921;28;20057;-71
2023/12/25 11:40:07;;;;;;;15.55;11.50;;;;;;;;;;4968649;28;20465;-70
2023/12/25 11:42:33;;;;;;;13.13;9.45;;;;;;;;;;4969900;28;20043;-70
2023/12/25 11:45:04;;;;;;;24.63;17.73;;;;;;;;;;4966750;28;20026;-71
2023/12/25 11:47:40;;;;;;;10.85;8.70;;;;;;;;;;4969470;28;20034;-69
2023/12/25 11:50:12;;;;;;;25.60;20.50;;;;;;;;;;4970020;28;20042;-70
2023/12/25 11:52:46;;;;;;;8.73;4.85;;;;;;;;;;4971235;28;20026;-70
2023/12/25 11:55:15;;;;;;;8.30;5.00;;;;;;;;;;4968895;28;20118;-70
2023/12/25 11:57:41;;;;;;;9.50;5.13;;;;;;;;;;4969066;28;20088;-71
2023/12/25 12:00:07;;;;;;;7.90;5.18;;;;;;;;;;4967759;28;20122;-70
2023/12/25 12:02:32;;;;;;;11.48;8.13;;;;;;;;;;4969975;28;20026;-70
2023/12/25 12:04:57;;;;;;;10.95;6.22;;;;;;;;;;4968221;28;20066;-71
2023/12/25 12:07:23;;;;;;;12.38;8.30;;;;;;;;;;4969223;28;20092;-72
2023/12/25 12:09:48;;;;;;;10.45;7.55;;;;;;;;;;4969169;28;20069;-71
2023/12/25 12:12:14;;;;;;;10.57;7.05;;;;;;;;;;4970494;28;20458;-70
2023/12/25 12:14:39;;;;;;;19.95;14.38;;;;;;;;;;4971615;28;20042;-73
2023/12/25 12:17:04;;;;;;;9.45;6.90;;;;;;;;;;4970813;28;20066;-70
2023/12/25 12:19:30;;;;;;;11.65;8.35;;;;;;;;;;4971644;28;20038;-70
2023/12/25 12:21:55;;;;;;;13.95;11.00;;;;;;;;;;4974156;28;20030;-69
2023/12/25 12:24:27;;;;;;;13.32;7.90;;;;;;;;;;4974216;28;20386;-70
2023/12/25 12:26:52;;;;;;;11.82;7.63;;;;;;;;;;4974484;28;20066;-70
2023/12/25 12:29:18;;;;;;;8.80;5.88;;;;;;;;;;4971455;28;20081;-72
2023/12/25 12:31:43;;;;;;;12.38;6.32;;;;;;;;;;4971298;28;20460;-69
2023/12/25 12:34:09;;;;;;;8.38;5.30;;;;;;;;;;4971316;28;20446;-71
2023/12/25 12:36:34;;;;;;;8.23;6.53;;;;;;;;;;4971253;28;20145;-69
2023/12/25 12:38:59;;;;;;;12.27;6.15;;;;;;;;;;4970069;28;20085;-69
2023/12/25 12:41:25;;;;;;;14.57;8.65;;;;;;;;;;4971105;28;20050;-70
2023/12/25 12:43:57;;;;;;;9.75;6.68;;;;;;;;;;4971486;28;20350;-69
2023/12/25 12:46:22;;;;;;;16.58;11.52;;;;;;;;;;4969414;28;20435;-68
2023/12/25 12:48:48;;;;;;;15.32;10.55;;;;;;;;;;4970788;28;20080;-71
2023/12/25 12:51:13;;;;;;;11.80;7.57;;;;;;;;;;4960132;28;20443;-70
2023/12/25 12:53:39;;;;;;;12.40;7.80;;;;;;;;;;4971787;28;20041;-71
2023/12/25 12:56:04;;;;;;;9.73;6.45;;;;;;;;;;4970630;28;20019;-70
2023/12/25 12:58:30;;;;;;;14.35;8.80;;;;;;;;;;4968133;28;20034;-70
2023/12/25 13:00:56;;;;;;;22.27;16.73;;;;;;;;;;4969561;28;20033;-70
2023/12/25 13:03:21;;;;;;;31.52;21.80;;;;;;;;;;4969952;28;20027;-71
2023/12/25 13:05:47;;;;;;;15.60;11.80;;;;;;;;;;4970700;28;20865;-69
2023/12/25 13:08:12;;;;;;;20.60;16.40;;;;;;;;;;4972864;28;20031;-71
2023/12/25 13:10:38;;;;;;;20.85;13.13;;;;;;;;;;4968821;28;20631;-71
2023/12/25 13:13:03;;;;;;;24.65;13.65;;;;;;;;;;4971015;28;20414;-70
2023/12/25 13:15:30;;;;;;;12.65;8.45;;;;;;;;;;4969991;28;20015;-72
2023/12/25 13:17:55;;;;;;;14.20;8.95;;;;;;;;;;4970843;28;20066;-72
2023/12/25 13:20:21;;;;;;;12.77;7.63;;;;;;;;;;4969219;28;20065;-70
2023/12/25 13:22:46;;;;;;;11.35;6.50;;;;;;;;;;4971162;28;20022;-70
2023/12/25 13:25:11;;;;;;;17.05;9.93;;;;;;;;;;4973618;28;20027;-70
2023/12/25 13:27:37;;;;;;;11.75;8.38;;;;;;;;;;4968699;28;20461;-71
2023/12/25 13:30:03;;;;;;;17.60;12.80;;;;;;;;;;4971925;28;20026;-70
2023/12/25 13:32:28;;;;;;;14.18;9.13;;;;;;;;;;4969290;28;20030;-69
2023/12/25 13:34:54;;;;;;;13.00;8.73;;;;;;;;;;4970083;28;20031;-71
2023/12/25 13:37:19;;;;;;;12.10;6.72;;;;;;;;;;4975012;28;20042;-70
2023/12/25 13:39:45;;;;;;;13.10;8.95;;;;;;;;;;4970367;28;20117;-70
2023/12/25 13:42:10;;;;;;;17.60;11.35;;;;;;;;;;4955714;28;20035;-70
2023/12/25 13:44:35;;;;;;;22.85;14.88;;;;;;;;;;4964762;28;20430;-72
2023/12/25 13:47:01;;;;;;;18.27;9.88;;;;;;;;;;4971484;28;20026;-72
2023/12/25 13:49:26;;;;;;;29.30;19.38;;;;;;;;;;4970112;28;20034;-71
2023/12/25 13:51:51;;;;;;;40.67;25.45;;;;;;;;;;4963274;28;20022;-71
2023/12/25 13:54:17;;;;;;;56.00;32.65;;;;;;;;;;4954578;28;20085;-71
2023/12/25 13:56:42;;;;;;;24.45;13.82;;;;;;;;;;4955420;28;20031;-70
2023/12/25 13:59:08;;;;;;;25.05;16.95;;;;;;;;;;4960980;28;20417;-69
2023/12/25 14:01:34;;;;;;;38.20;26.65;;;;;;;;;;4960403;28;20443;-70
2023/12/25 14:03:59;;;;;;;39.50;28.27;;;;;;;;;;4961065;28;20023;-69
2023/12/25 14:06:27;;;;;;;28.35;17.27;;;;;;;;;;4962052;28;20058;-69
2023/12/25 14:08:52;;;;;;;45.67;36.53;;;;;;;;;;4961368;28;20093;-69
2023/12/25 14:11:18;;;;;;;47.80;39.20;;;;;;;;;;4959644;28;20042;-70
2023/12/25 14:13:43;;;;;;;26.30;22.05;;;;;;;;;;4957645;28;20034;-70